createdAt,value
2024-02-19T00:02:15.970Z,7.99
2024-02-19T00:04:42.561Z,7.98
2024-02-19T00:07:09.177Z,7.99
2024-02-19T00:09:35.832Z,7.99
2024-02-19T00:12:02.424Z,7.98
2024-02-19T00:14:28.948Z,7.98
2024-02-19T00:16:55.413Z,7.97
2024-02-19T00:19:22.626Z,7.99
2024-02-19T00:21:49.343Z,7.96
2024-02-19T00:24:15.819Z,7.94
2024-02-19T00:26:42.238Z,7.94
2024-02-19T00:29:08.917Z,7.93
2024-02-19T00:31:35.593Z,7.93
2024-02-19T00:34:02.316Z,7.91
2024-02-19T00:36:29.355Z,7.92
2024-02-19T00:38:55.799Z,7.89
2024-02-19T00:41:23.192Z,7.90
2024-02-19T00:43:49.996Z,7.87
2024-02-19T00:46:16.879Z,7.87
2024-02-19T00:48:43.725Z,7.87
2024-02-19T00:51:10.484Z,7.85
2024-02-19T00:53:40.415Z,7.85
2024-02-19T00:56:07.529Z,7.85
2024-02-19T00:58:33.955Z,7.85
2024-02-19T01:01:00.532Z,7.84
2024-02-19T01:03:27.493Z,7.84
2024-02-19T01:05:54.000Z,7.83
2024-02-19T01:08:20.524Z,7.82
2024-02-19T01:10:47.165Z,7.84
2024-02-19T01:13:14.189Z,7.82
2024-02-19T01:15:40.806Z,7.82
2024-02-19T01:18:07.396Z,7.81
2024-02-19T01:20:33.918Z,7.82
2024-02-19T01:23:00.575Z,7.79
2024-02-19T01:25:27.219Z,7.80
2024-02-19T01:27:53.753Z,7.80
2024-02-19T01:30:20.296Z,7.80
2024-02-19T01:32:46.822Z,7.79
2024-02-19T01:35:13.451Z,7.80
2024-02-19T01:37:41.080Z,7.79
2024-02-19T01:40:10.231Z,7.80
2024-02-19T01:42:36.982Z,7.79
2024-02-19T01:45:05.660Z,7.80
2024-02-19T01:47:32.589Z,7.79
2024-02-19T01:49:59.634Z,7.80
2024-02-19T01:52:26.593Z,7.79
2024-02-19T01:54:53.868Z,7.78
2024-02-19T01:57:21.185Z,7.77
2024-02-19T01:59:49.017Z,7.76
2024-02-19T02:02:17.657Z,7.77
2024-02-19T02:04:44.078Z,7.75
2024-02-19T02:07:11.005Z,7.73
2024-02-19T02:09:37.947Z,7.73
2024-02-19T02:12:04.782Z,7.73
2024-02-19T02:14:31.293Z,7.70
2024-02-19T02:16:57.801Z,7.70
2024-02-19T02:19:24.390Z,7.70
2024-02-19T02:21:51.028Z,7.69
2024-02-19T02:24:17.535Z,7.69
2024-02-19T02:26:44.080Z,7.69
2024-02-19T02:29:10.578Z,7.68
2024-02-19T02:31:37.218Z,7.68
2024-02-19T02:34:05.150Z,7.68
2024-02-19T02:36:31.763Z,7.66
2024-02-19T02:38:58.203Z,7.66
2024-02-19T02:41:24.697Z,7.66
2024-02-19T02:43:51.287Z,7.66
2024-02-19T02:46:17.839Z,7.67
2024-02-19T02:48:44.510Z,7.67
2024-02-19T02:51:11.061Z,7.69
2024-02-19T02:53:37.605Z,7.68
2024-02-19T02:56:04.146Z,7.67
2024-02-19T02:58:30.699Z,7.69
2024-02-19T03:00:57.224Z,7.70
2024-02-19T03:03:23.775Z,7.68
2024-02-19T03:05:50.262Z,7.68
2024-02-19T03:08:16.724Z,7.68
2024-02-19T03:10:44.414Z,7.69
2024-02-19T03:13:11.095Z,7.68
2024-02-19T03:15:37.652Z,7.66
2024-02-19T03:18:05.482Z,7.67
2024-02-19T03:20:32.227Z,7.66
2024-02-19T03:22:58.706Z,7.68
2024-02-19T03:25:25.237Z,7.67
2024-02-19T03:27:52.886Z,7.67
2024-02-19T03:30:19.488Z,7.66
2024-02-19T03:32:46.161Z,7.69
2024-02-19T03:35:13.236Z,7.68
2024-02-19T03:37:39.701Z,7.68
2024-02-19T03:40:09.910Z,7.67
2024-02-19T03:42:36.720Z,7.68
2024-02-19T03:45:04.677Z,7.67
2024-02-19T03:47:31.624Z,7.66
2024-02-19T03:49:58.423Z,7.67
2024-02-19T03:52:25.025Z,7.68
2024-02-19T03:54:51.646Z,7.68
2024-02-19T03:57:18.242Z,7.68
2024-02-19T03:59:44.823Z,7.68
2024-02-19T04:02:11.342Z,7.67
2024-02-19T04:04:37.874Z,7.67
2024-02-19T04:07:04.592Z,7.66
2024-02-19T04:09:31.162Z,7.66
2024-02-19T04:11:57.665Z,7.66
2024-02-19T04:14:26.023Z,7.66
2024-02-19T04:16:52.501Z,7.64
2024-02-19T04:19:19.116Z,7.64
2024-02-19T04:21:46.505Z,7.64
2024-02-19T04:24:13.522Z,7.64
2024-02-19T04:26:40.355Z,7.64
2024-02-19T04:29:08.481Z,7.64
2024-02-19T04:31:35.063Z,7.63
2024-02-19T04:34:01.752Z,7.64
2024-02-19T04:36:28.411Z,7.61
2024-02-19T04:38:54.936Z,7.60
2024-02-19T04:41:21.458Z,7.60
2024-02-19T04:43:47.903Z,7.58
2024-02-19T04:46:14.485Z,7.57
2024-02-19T04:48:41.095Z,7.56
2024-02-19T04:51:07.703Z,7.58
2024-02-19T04:53:34.502Z,7.57
2024-02-19T04:56:01.044Z,7.58
2024-02-19T04:58:27.552Z,7.59
2024-02-19T05:00:54.093Z,7.60
2024-02-19T05:03:20.616Z,7.61
2024-02-19T05:05:47.069Z,7.61
2024-02-19T05:08:13.719Z,7.60
2024-02-19T05:10:40.272Z,7.62
2024-02-19T05:13:06.863Z,7.62
2024-02-19T05:15:33.527Z,7.61
2024-02-19T05:18:00.071Z,7.61
2024-02-19T05:20:26.509Z,7.62
2024-02-19T05:22:53.004Z,7.62
2024-02-19T05:25:19.883Z,7.61
2024-02-19T05:27:46.583Z,7.62
2024-02-19T05:30:17.437Z,7.62
2024-02-19T05:32:43.969Z,7.62
2024-02-19T05:35:10.924Z,7.63
2024-02-19T05:37:37.771Z,7.63
2024-02-19T05:40:04.675Z,7.64
2024-02-19T05:42:31.173Z,7.63
2024-02-19T05:44:57.609Z,7.62
2024-02-19T05:47:25.481Z,7.61
2024-02-19T05:49:52.124Z,7.61
2024-02-19T05:52:18.911Z,7.61
2024-02-19T05:54:45.577Z,7.60
2024-02-19T05:57:12.209Z,7.60
2024-02-19T05:59:38.728Z,7.60
2024-02-19T06:02:05.400Z,7.60
2024-02-19T06:04:32.219Z,7.61
2024-02-19T06:07:00.506Z,7.61
2024-02-19T06:09:27.118Z,7.63
2024-02-19T06:11:54.728Z,7.63
2024-02-19T06:14:21.203Z,7.64
2024-02-19T06:16:47.743Z,7.65
2024-02-19T06:19:16.592Z,7.64
2024-02-19T06:24:09.566Z,7.66
2024-02-19T06:26:36.035Z,7.66
2024-02-19T06:29:04.297Z,7.68
2024-02-19T06:31:30.820Z,7.68
2024-02-19T06:33:57.574Z,7.69
2024-02-19T06:36:24.172Z,7.69
2024-02-19T06:38:51.257Z,7.71
2024-02-19T06:41:17.757Z,7.71
2024-02-19T06:43:44.260Z,7.71
2024-02-19T06:46:13.013Z,7.73
2024-02-19T06:48:42.855Z,7.73
2024-02-19T06:51:09.443Z,7.75
2024-02-19T06:53:36.068Z,7.74
2024-02-19T06:56:02.629Z,7.75
2024-02-19T06:58:29.178Z,7.77
2024-02-19T07:00:55.803Z,7.77
2024-02-19T07:03:22.316Z,7.77
2024-02-19T07:05:48.924Z,7.77
2024-02-19T07:08:15.616Z,7.80
2024-02-19T07:10:42.361Z,7.80
2024-02-19T07:13:08.964Z,7.81
2024-02-19T07:15:35.527Z,7.82
2024-02-19T07:18:02.121Z,7.85
2024-02-19T07:20:28.713Z,7.87
2024-02-19T07:22:55.172Z,7.88
2024-02-19T07:25:22.398Z,7.91
2024-02-19T07:27:49.494Z,7.93
2024-02-19T07:30:16.956Z,7.96
2024-02-19T07:32:43.671Z,7.99
2024-02-19T07:35:10.472Z,8.01
2024-02-19T07:37:37.079Z,8.03
2024-02-19T07:40:04.336Z,8.07
2024-02-19T07:42:31.015Z,8.10
2024-02-19T07:44:57.509Z,8.15
2024-02-19T07:47:24.001Z,8.19
2024-02-19T07:49:50.503Z,8.24
2024-02-19T07:52:17.207Z,8.30
2024-02-19T07:54:43.833Z,8.35
2024-02-19T07:57:10.295Z,8.40
2024-02-19T07:59:37.208Z,8.43
2024-02-19T08:02:04.059Z,8.46
2024-02-19T08:04:30.997Z,8.49
2024-02-19T08:07:00.927Z,8.56
2024-02-19T08:09:28.168Z,8.60
2024-02-19T08:11:54.839Z,8.65
2024-02-19T08:14:21.356Z,8.73
2024-02-19T08:16:50.091Z,8.77
2024-02-19T08:19:17.099Z,8.78
2024-02-19T08:21:43.865Z,8.83
2024-02-19T08:24:10.625Z,8.86
2024-02-19T08:26:37.164Z,8.92
2024-02-19T08:29:05.024Z,8.96
2024-02-19T08:31:31.637Z,9.02
2024-02-19T08:33:58.591Z,9.11
2024-02-19T08:36:25.206Z,9.16
2024-02-19T08:38:54.239Z,9.21
2024-02-19T08:41:21.328Z,9.18
2024-02-19T08:43:48.449Z,9.17
2024-02-19T08:46:16.603Z,9.17
2024-02-19T08:48:43.831Z,9.12
2024-02-19T08:51:10.490Z,9.10
2024-02-19T08:53:36.928Z,9.06
2024-02-19T08:56:03.894Z,9.07
2024-02-19T08:58:32.120Z,9.05
2024-02-19T09:01:00.432Z,9.05
2024-02-19T09:03:27.576Z,9.05
2024-02-19T09:05:54.225Z,9.07
2024-02-19T09:08:20.786Z,9.11
2024-02-19T09:10:47.332Z,9.13
2024-02-19T09:13:13.985Z,9.16
2024-02-19T09:15:40.538Z,9.20
2024-02-19T09:18:07.469Z,9.23
2024-02-19T09:20:34.998Z,9.27
2024-02-19T09:23:01.782Z,9.31
2024-02-19T09:25:28.616Z,9.37
2024-02-19T09:27:55.467Z,9.39
2024-02-19T09:30:22.230Z,9.43
2024-02-19T09:32:48.795Z,9.44
2024-02-19T09:35:17.259Z,9.45
2024-02-19T09:37:44.165Z,9.50
2024-02-19T09:40:14.254Z,9.52
2024-02-19T09:42:41.163Z,9.55
2024-02-19T09:45:09.725Z,9.66
2024-02-19T09:47:39.680Z,9.77
2024-02-19T09:50:10.212Z,9.81
2024-02-19T09:52:37.340Z,9.86
2024-02-19T09:55:04.362Z,9.89
2024-02-19T09:57:30.988Z,9.88
2024-02-19T10:00:03.825Z,9.93
2024-02-19T10:02:33.099Z,9.96
2024-02-19T10:05:00.589Z,10.02
2024-02-19T10:07:27.541Z,10.01
2024-02-19T10:09:54.314Z,10.01
2024-02-19T10:12:20.959Z,9.99
2024-02-19T10:14:47.499Z,9.96
2024-02-19T10:17:20.932Z,9.93
2024-02-19T10:19:48.397Z,9.93
2024-02-19T10:22:18.059Z,9.92
2024-02-19T10:24:44.746Z,9.90
2024-02-19T10:27:11.410Z,9.93
2024-02-19T10:29:37.893Z,9.96
2024-02-19T10:32:04.771Z,9.96
2024-02-19T10:34:31.352Z,10.00
2024-02-19T10:36:57.892Z,10.00
2024-02-19T10:39:24.964Z,10.02
2024-02-19T10:41:51.644Z,10.02
2024-02-19T10:44:18.302Z,9.99
2024-02-19T10:46:45.116Z,10.01
2024-02-19T10:49:11.807Z,10.03
2024-02-19T10:51:40.694Z,10.03
2024-02-19T10:54:07.424Z,10.08
2024-02-19T10:56:36.906Z,10.10
2024-02-19T10:59:04.087Z,10.06
2024-02-19T11:01:48.199Z,10.08
2024-02-19T11:04:18.371Z,10.13
2024-02-19T11:06:58.865Z,10.13
2024-02-19T11:09:32.958Z,10.13
2024-02-19T11:12:01.362Z,10.11
2024-02-19T11:14:36.813Z,10.14
2024-02-19T11:17:04.138Z,10.15
2024-02-19T11:19:39.323Z,10.16
2024-02-19T11:22:12.678Z,10.18
2024-02-19T11:24:41.397Z,10.18
2024-02-19T11:27:08.750Z,10.17
2024-02-19T11:29:43.668Z,10.19
2024-02-19T11:32:19.357Z,10.20
2024-02-19T11:34:46.988Z,10.22
2024-02-19T11:37:14.961Z,10.22
2024-02-19T11:39:43.592Z,10.26
2024-02-19T11:42:13.078Z,10.25
2024-02-19T11:44:40.148Z,10.25
2024-02-19T11:47:08.950Z,10.23
2024-02-19T11:49:35.758Z,10.20
2024-02-19T11:52:08.365Z,10.20
2024-02-19T11:54:39.794Z,10.22
2024-02-19T11:57:08.573Z,10.23
2024-02-19T11:59:36.757Z,10.22
2024-02-19T12:02:04.628Z,10.24
2024-02-19T12:04:35.807Z,10.24
2024-02-19T12:07:02.429Z,10.22
2024-02-19T12:09:29.012Z,10.18
2024-02-19T12:11:55.566Z,10.16
2024-02-19T12:14:22.057Z,10.14
2024-02-19T12:16:48.556Z,10.12
2024-02-19T12:19:15.076Z,10.14
2024-02-19T12:21:43.530Z,10.16
2024-02-19T12:24:11.985Z,10.18
2024-02-19T12:26:39.356Z,10.24
2024-02-19T12:29:05.994Z,10.29
2024-02-19T12:31:32.559Z,10.30
2024-02-19T12:33:59.483Z,10.29
2024-02-19T12:36:26.165Z,10.31
2024-02-19T12:38:54.035Z,10.37
2024-02-19T12:41:20.635Z,10.40
2024-02-19T12:43:47.151Z,10.37
2024-02-19T12:46:15.726Z,10.40
2024-02-19T12:48:46.183Z,10.41
2024-02-19T12:51:16.297Z,10.48
2024-02-19T12:53:43.837Z,10.54
2024-02-19T12:56:10.691Z,10.59
2024-02-19T12:58:37.330Z,10.55
2024-02-19T13:01:09.679Z,10.47
2024-02-19T13:03:43.918Z,10.40
2024-02-19T13:06:15.665Z,10.40
2024-02-19T13:08:45.220Z,10.42
2024-02-19T13:11:11.971Z,10.45
2024-02-19T13:13:38.569Z,10.46
2024-02-19T13:16:05.757Z,10.41
2024-02-19T13:18:33.126Z,10.37
2024-02-19T13:20:59.691Z,10.28
2024-02-19T13:23:26.508Z,10.23
2024-02-19T13:25:52.988Z,10.15
2024-02-19T13:28:19.593Z,10.10
2024-02-19T13:30:46.299Z,10.05
2024-02-19T13:33:12.926Z,10.02
2024-02-19T13:35:39.614Z,10.00
2024-02-19T13:38:06.316Z,9.95
2024-02-19T13:40:32.878Z,9.94
2024-02-19T13:43:00.064Z,9.89
2024-02-19T13:45:29.702Z,9.83
2024-02-19T13:48:00.789Z,9.75
2024-02-19T13:50:27.606Z,9.69
2024-02-19T13:52:54.274Z,9.65
2024-02-19T13:55:21.069Z,9.63
2024-02-19T13:57:47.870Z,9.59
2024-02-19T14:00:16.657Z,9.53
2024-02-19T14:02:43.221Z,9.48
2024-02-19T14:05:09.795Z,9.42
2024-02-19T14:07:36.380Z,9.41
2024-02-19T14:10:05.775Z,9.42
2024-02-19T14:12:32.302Z,9.40
2024-02-19T14:14:58.785Z,9.40
2024-02-19T14:17:25.285Z,9.37
2024-02-19T14:19:52.618Z,9.34
2024-02-19T14:22:19.261Z,9.29
2024-02-19T14:24:45.926Z,9.26
2024-02-19T14:27:12.474Z,9.24
2024-02-19T14:29:39.236Z,9.21
2024-02-19T14:32:06.778Z,9.13
2024-02-19T14:34:34.037Z,9.14
2024-02-19T14:37:00.935Z,9.11
2024-02-19T14:39:28.219Z,9.09
2024-02-19T14:41:54.779Z,9.05
2024-02-19T14:44:21.864Z,9.02
2024-02-19T14:46:54.290Z,9.01
2024-02-19T14:49:24.658Z,8.99
2024-02-19T14:51:51.365Z,8.99
2024-02-19T14:54:18.492Z,8.98
2024-02-19T14:56:45.085Z,8.94
2024-02-19T14:59:11.626Z,8.93
2024-02-19T15:01:38.484Z,8.94
2024-02-19T15:04:05.479Z,8.96
2024-02-19T15:06:32.350Z,8.98
2024-02-19T15:08:58.931Z,9.00
2024-02-19T15:11:25.404Z,9.04
2024-02-19T15:13:52.588Z,9.04
2024-02-19T15:16:19.518Z,9.04
2024-02-19T15:18:46.385Z,9.04
2024-02-19T15:21:12.949Z,9.03
2024-02-19T15:23:41.132Z,9.00
2024-02-19T15:26:11.707Z,8.99
2024-02-19T15:28:38.998Z,8.99
2024-02-19T15:31:05.612Z,8.97
2024-02-19T15:33:32.186Z,8.92
2024-02-19T15:35:59.853Z,8.88
2024-02-19T15:38:26.388Z,8.87
2024-02-19T15:40:52.918Z,8.87
2024-02-19T15:43:19.895Z,8.85
2024-02-19T15:45:47.651Z,8.84
2024-02-19T15:48:14.442Z,8.84
2024-02-19T15:50:41.127Z,8.82
2024-02-19T15:53:13.178Z,8.83
2024-02-19T15:55:45.071Z,8.82
2024-02-19T15:58:11.613Z,8.78
2024-02-19T16:00:41.575Z,8.79
2024-02-19T16:03:08.888Z,8.82
2024-02-19T16:05:35.522Z,8.83
2024-02-19T16:08:06.184Z,8.85
2024-02-19T16:10:32.826Z,8.83
2024-02-19T16:12:59.590Z,8.83
2024-02-19T16:15:26.085Z,8.79
2024-02-19T16:17:52.620Z,8.78
2024-02-19T16:20:19.121Z,8.76
2024-02-19T16:22:47.865Z,8.73
2024-02-19T16:25:14.482Z,8.71
2024-02-19T16:27:41.073Z,8.70
2024-02-19T16:30:10.313Z,8.66
2024-02-19T16:32:37.302Z,8.65
2024-02-19T16:35:04.241Z,8.63
2024-02-19T16:37:30.931Z,8.62
2024-02-19T16:39:57.770Z,8.60
2024-02-19T16:42:24.219Z,8.60
2024-02-19T16:44:50.662Z,8.59
2024-02-19T16:47:17.242Z,8.58
2024-02-19T16:49:46.045Z,8.58
2024-02-19T16:52:13.534Z,8.59
2024-02-19T16:54:40.173Z,8.56
2024-02-19T16:57:06.621Z,8.53
2024-02-19T16:59:33.055Z,8.50
2024-02-19T17:01:59.820Z,8.48
2024-02-19T17:04:26.540Z,8.46
2024-02-19T17:06:54.879Z,8.44
2024-02-19T17:09:21.551Z,8.43
2024-02-19T17:11:47.982Z,8.42
2024-02-19T17:14:15.170Z,8.40
2024-02-19T17:16:41.666Z,8.39
2024-02-19T17:19:08.278Z,8.38
2024-02-19T17:21:37.541Z,8.39
2024-02-19T17:24:04.242Z,8.36
2024-02-19T17:26:31.904Z,8.35
2024-02-19T17:28:58.392Z,8.33
2024-02-19T17:31:28.164Z,8.32
2024-02-19T17:33:54.905Z,8.31
2024-02-19T17:36:21.385Z,8.28
2024-02-19T17:38:47.854Z,8.28
2024-02-19T17:41:14.308Z,8.28
2024-02-19T17:43:41.071Z,8.26
2024-02-19T17:46:07.625Z,8.23
2024-02-19T17:48:36.667Z,8.18
2024-02-19T17:51:04.487Z,8.11
2024-02-19T17:53:30.971Z,8.07
2024-02-19T17:55:57.433Z,8.05
2024-02-19T17:58:25.559Z,8.05
2024-02-19T18:00:52.320Z,8.02
2024-02-19T18:03:19.365Z,8.00
2024-02-19T18:05:45.957Z,7.93
2024-02-19T18:08:13.165Z,7.88
2024-02-19T18:10:39.782Z,7.85
2024-02-19T18:13:08.115Z,7.79
2024-02-19T18:15:34.819Z,7.74
2024-02-19T18:18:04.088Z,7.70
2024-02-19T18:20:31.334Z,7.65
2024-02-19T18:22:58.468Z,7.64
2024-02-19T18:25:24.938Z,7.61
2024-02-19T18:27:51.692Z,7.56
2024-02-19T18:30:18.731Z,7.50
2024-02-19T18:32:45.264Z,7.45
2024-02-19T18:35:11.901Z,7.43
2024-02-19T18:37:38.636Z,7.43
2024-02-19T18:40:08.231Z,7.43
2024-02-19T18:42:35.250Z,7.41
2024-02-19T18:45:03.480Z,7.36
2024-02-19T18:47:29.971Z,7.36
2024-02-19T18:49:56.669Z,7.40
2024-02-19T18:52:23.423Z,7.43
2024-02-19T18:54:50.067Z,7.46
2024-02-19T18:57:16.603Z,7.48
2024-02-19T18:59:44.672Z,7.50
2024-02-19T19:02:11.240Z,7.52
2024-02-19T19:04:38.579Z,7.54
2024-02-19T19:07:07.446Z,7.57
2024-02-19T19:09:40.488Z,7.57
2024-02-19T19:12:11.866Z,7.58
2024-02-19T19:14:39.477Z,7.59
2024-02-19T19:17:07.182Z,7.60
2024-02-19T19:19:34.954Z,7.61
2024-02-19T19:22:03.538Z,7.61
2024-02-19T19:24:30.751Z,7.60
2024-02-19T19:26:57.435Z,7.61
2024-02-19T19:29:24.758Z,7.61
2024-02-19T19:31:51.385Z,7.60
2024-02-19T19:34:18.130Z,7.59
2024-02-19T19:36:44.611Z,7.57
2024-02-19T19:39:12.177Z,7.54
2024-02-19T19:41:39.252Z,7.50
2024-02-19T19:44:12.043Z,7.46
2024-02-19T19:46:39.104Z,7.46
2024-02-19T19:49:05.995Z,7.46
2024-02-19T19:51:32.535Z,7.46
2024-02-19T19:53:59.539Z,7.45
2024-02-19T19:56:26.071Z,7.46
2024-02-19T19:58:54.909Z,7.45
2024-02-19T20:01:22.451Z,7.44
2024-02-19T20:03:50.742Z,7.42
2024-02-19T20:06:17.985Z,7.41
2024-02-19T20:08:48.806Z,7.36
2024-02-19T20:11:15.537Z,7.34
2024-02-19T20:13:42.097Z,7.31
2024-02-19T20:16:08.616Z,7.27
2024-02-19T20:18:36.314Z,7.26
2024-02-19T20:21:04.220Z,7.22
2024-02-19T20:23:31.550Z,7.20
2024-02-19T20:25:58.776Z,7.17
2024-02-19T20:28:25.256Z,7.13
2024-02-19T20:30:54.249Z,7.08
2024-02-19T20:33:20.843Z,7.05
2024-02-19T20:35:47.592Z,6.99
2024-02-19T20:38:14.039Z,6.98
2024-02-19T20:40:40.498Z,6.98
2024-02-19T20:43:07.100Z,6.97
2024-02-19T20:45:33.864Z,6.96
2024-02-19T20:48:00.476Z,6.97
2024-02-19T20:50:27.047Z,6.97
2024-02-19T20:52:57.322Z,6.95
2024-02-19T20:55:24.200Z,6.93
2024-02-19T20:57:51.230Z,6.87
2024-02-19T21:00:18.794Z,6.84
2024-02-19T21:02:45.209Z,6.78
2024-02-19T21:05:20.450Z,6.74
2024-02-19T21:07:49.912Z,6.70
2024-02-19T21:10:16.578Z,6.70
2024-02-19T21:12:43.547Z,6.67
2024-02-19T21:15:14.564Z,6.61
2024-02-19T21:17:41.236Z,6.60
2024-02-19T21:20:10.602Z,6.60
2024-02-19T21:22:37.336Z,6.58
2024-02-19T21:25:04.121Z,6.58
2024-02-19T21:27:31.820Z,6.54
2024-02-19T21:29:58.404Z,6.50
2024-02-19T21:32:26.883Z,6.45
2024-02-19T21:34:53.796Z,6.40
2024-02-19T21:37:20.453Z,6.32
2024-02-19T21:39:47.005Z,6.24
2024-02-19T21:42:20.492Z,6.16
2024-02-19T21:44:49.750Z,6.07
2024-02-19T21:47:16.251Z,6.03
2024-02-19T21:49:42.812Z,5.96
2024-02-19T21:52:09.393Z,5.89
2024-02-19T21:54:35.916Z,5.84
2024-02-19T21:57:02.391Z,5.78
2024-02-19T21:59:28.908Z,5.72
2024-02-19T22:01:55.495Z,5.63
2024-02-19T22:04:22.222Z,5.55
2024-02-19T22:06:48.826Z,5.47
2024-02-19T22:09:15.410Z,5.41
2024-02-19T22:11:45.266Z,5.37
2024-02-19T22:14:11.832Z,5.33
2024-02-19T22:16:38.331Z,5.30
2024-02-19T22:19:04.869Z,5.26
2024-02-19T22:21:31.952Z,5.15
2024-02-19T22:23:58.630Z,5.03
2024-02-19T22:26:25.098Z,4.99
2024-02-19T22:28:52.324Z,4.96
2024-02-19T22:31:18.949Z,4.90
2024-02-19T22:33:45.492Z,4.87
2024-02-19T22:36:12.029Z,4.83
2024-02-19T22:38:39.064Z,4.81
2024-02-19T22:41:05.796Z,4.81
2024-02-19T22:43:32.448Z,4.79
2024-02-19T22:45:59.000Z,4.76
2024-02-19T22:48:25.731Z,4.74
2024-02-19T22:50:52.296Z,4.75
2024-02-19T22:53:19.485Z,4.74
2024-02-19T22:55:46.220Z,4.73
2024-02-19T22:58:17.788Z,4.74
2024-02-19T23:00:49.582Z,4.75
2024-02-19T23:03:16.126Z,4.75
2024-02-19T23:05:42.690Z,4.72
2024-02-19T23:08:09.204Z,4.70
2024-02-19T23:10:35.758Z,4.68
2024-02-19T23:13:02.979Z,4.68
2024-02-19T23:15:29.524Z,4.68
2024-02-19T23:17:56.216Z,4.68
2024-02-19T23:20:23.787Z,4.67
2024-02-19T23:22:50.500Z,4.66
2024-02-19T23:25:17.218Z,4.62
2024-02-19T23:27:43.660Z,4.60
2024-02-19T23:30:10.477Z,4.58
2024-02-19T23:32:37.099Z,4.59
2024-02-19T23:35:06.089Z,4.59
2024-02-19T23:37:33.105Z,4.61
2024-02-19T23:39:59.958Z,4.58
2024-02-19T23:42:27.279Z,4.53
2024-02-19T23:44:53.839Z,4.49
2024-02-19T23:47:20.654Z,4.49
2024-02-19T23:49:47.214Z,4.49
2024-02-19T23:52:13.904Z,4.48
2024-02-19T23:54:41.187Z,4.48
2024-02-19T23:57:08.691Z,4.47
2024-02-19T23:59:35.710Z,4.44
